Time;durP1;ratioP1;P1;durP2;ratioP2;P2;SDS_P1;SDS_P2;PMS_P1;PMS_P2;Temp;Humidity;BMP_temperature;BMP_pressure;BME280_temperature;BME280_humidity;BME280_pressure;Samples;Min_cycle;Max_cycle;Signal;HPM_P1;HPM_P2
2022/09/21 00:01:07;;;;;;;1.50;1.20;;;10.70;98.20;;;;;;4985295;28;20580;-77
2022/09/21 00:03:34;;;;;;;1.50;1.20;;;10.70;98.20;;;;;;5006079;28;20493;-77
2022/09/21 00:06:05;;;;;;;1.57;1.10;;;10.70;98.20;;;;;;4983994;28;20488;-77
2022/09/21 00:08:33;;;;;;;1.50;1.20;;;10.70;98.20;;;;;;5005494;28;20499;-77
2022/09/21 00:11:00;;;;;;;1.53;1.20;;;10.60;98.20;;;;;;4985028;28;20992;-77
2022/09/21 00:13:28;;;;;;;1.50;1.10;;;10.60;98.20;;;;;;5006906;28;20977;-75
2022/09/21 00:15:57;;;;;;;1.50;1.10;;;10.60;98.20;;;;;;4982970;28;21001;-76
2022/09/21 00:18:24;;;;;;;1.53;1.20;;;10.60;98.20;;;;;;5007147;28;20485;-76
2022/09/21 00:20:52;;;;;;;1.50;1.10;;;10.50;98.20;;;;;;4995587;28;20491;-76
2022/09/21 00:23:19;;;;;;;1.53;1.20;;;10.50;98.20;;;;;;5023365;28;20554;-77
2022/09/21 00:25:47;;;;;;;1.53;1.20;;;10.50;98.20;;;;;;4987744;28;20507;-77
2022/09/21 00:28:16;;;;;;;1.50;1.13;;;10.40;98.20;;;;;;5007933;28;20491;-77
2022/09/21 00:30:43;;;;;;;1.50;1.20;;;10.40;98.20;;;;;;4992931;28;20616;-77
2022/09/21 00:33:11;;;;;;;1.50;1.20;;;10.30;98.20;;;;;;5011386;28;21000;-77
2022/09/21 00:35:40;;;;;;;1.50;1.10;;;10.40;98.20;;;;;;5009259;28;20464;-76
2022/09/21 00:38:07;;;;;;;1.50;1.07;;;10.30;98.20;;;;;;4999535;28;20499;-77
2022/09/21 00:40:34;;;;;;;1.50;1.10;;;10.30;98.20;;;;;;4991766;28;20836;-77
2022/09/21 00:43:22;;;;;;;1.60;1.20;;;10.30;98.20;;;;;;5001681;28;20484;-77
2022/09/21 00:46:01;;;;;;;1.50;1.10;;;10.20;98.20;;;;;;4989323;28;20476;-77
2022/09/21 00:48:31;;;;;;;1.53;1.20;;;10.20;98.20;;;;;;5009772;28;20488;-77
2022/09/21 00:51:03;;;;;;;1.53;1.20;;;10.20;98.20;;;;;;4988828;28;20991;-78
2022/09/21 00:53:31;;;;;;;1.53;1.20;;;10.20;98.20;;;;;;5017809;28;21037;-76
2022/09/21 00:56:01;;;;;;;1.50;1.20;;;10.10;98.20;;;;;;4982648;28;20488;-77
2022/09/21 00:58:31;;;;;;;1.50;1.10;;;10.10;98.20;;;;;;5006376;28;20489;-77
2022/09/21 01:01:00;;;;;;;1.50;1.13;;;10.00;98.20;;;;;;4982582;28;20472;-76
2022/09/21 01:03:30;;;;;;;1.50;1.20;;;10.00;98.20;;;;;;4990630;28;20465;-76
2022/09/21 01:05:57;;;;;;;1.53;1.30;;;10.00;98.20;;;;;;4994327;28;20897;-76
2022/09/21 01:08:26;;;;;;;1.60;1.30;;;10.00;98.20;;;;;;5018499;28;20649;-77
2022/09/21 01:11:16;;;;;;;1.50;1.10;;;10.00;98.20;;;;;;4978315;28;20857;-75
2022/09/21 01:13:53;;;;;;;1.57;1.20;;;10.00;98.20;;;;;;5006942;28;20484;-75
2022/09/21 01:16:25;;;;;;;1.50;1.20;;;10.00;98.20;;;;;;4993383;28;20467;-76
2022/09/21 01:19:03;;;;;;;1.50;1.20;;;9.90;98.20;;;;;;5008665;28;20482;-76
2022/09/21 01:21:33;;;;;;;1.50;1.17;;;9.90;98.20;;;;;;4999958;28;20533;-77
2022/09/21 01:24:31;;;;;;;1.50;1.20;;;9.90;98.20;;;;;;5014062;28;20468;-75
2022/09/21 01:27:23;;;;;;;1.50;1.10;;;9.90;98.20;;;;;;4993128;28;20504;-75
2022/09/21 01:29:55;;;;;;;1.60;1.30;;;9.80;98.20;;;;;;4992652;28;20484;-78
2022/09/21 01:32:27;;;;;;;1.50;1.20;;;9.80;98.20;;;;;;4992521;28;20486;-77
2022/09/21 01:34:57;;;;;;;1.50;1.20;;;9.70;98.20;;;;;;4996119;28;20472;-77
2022/09/21 01:37:29;;;;;;;1.53;1.20;;;9.70;98.20;;;;;;4997068;28;20884;-79
2022/09/21 01:40:03;;;;;;;1.53;1.20;;;9.70;98.20;;;;;;4992057;28;20560;-76
2022/09/21 01:42:33;;;;;;;1.57;1.20;;;9.70;98.20;;;;;;4997708;28;20511;-77
2022/09/21 01:45:05;;;;;;;1.50;1.20;;;9.60;98.20;;;;;;5004740;28;20543;-77
2022/09/21 01:47:35;;;;;;;1.53;1.20;;;9.60;98.20;;;;;;4997977;28;20499;-78
2022/09/21 01:50:05;;;;;;;1.57;1.20;;;9.60;98.20;;;;;;4997134;28;20525;-76
2022/09/21 01:52:37;;;;;;;1.57;1.20;;;9.60;98.20;;;;;;5007630;28;20479;-76
2022/09/21 01:55:09;;;;;;;1.57;1.23;;;9.60;98.20;;;;;;5004992;28;20574;-76
2022/09/21 01:57:43;;;;;;;1.50;1.20;;;9.60;98.20;;;;;;4997780;28;20480;-75
2022/09/21 02:00:13;;;;;;;1.50;1.20;;;9.50;98.20;;;;;;4996884;28;20475;-78
2022/09/21 02:02:43;;;;;;;1.60;1.30;;;9.60;98.20;;;;;;4995193;28;20515;-78
2022/09/21 02:05:12;;;;;;;1.53;1.20;;;9.60;98.20;;;;;;5003397;28;20466;-76
2022/09/21 02:07:39;;;;;;;1.53;1.20;;;9.60;98.20;;;;;;4998300;28;20479;-76
2022/09/21 02:10:11;;;;;;;1.60;1.20;;;9.60;98.20;;;;;;5009681;28;20483;-76
2022/09/21 02:12:38;;;;;;;1.60;1.40;;;9.50;98.20;;;;;;4991821;28;20491;-77
2022/09/21 02:15:06;;;;;;;1.50;1.20;;;9.50;98.20;;;;;;5008911;28;20499;-75
2022/09/21 02:17:44;;;;;;;1.57;1.10;;;9.50;98.20;;;;;;4997385;28;20844;-75
2022/09/21 02:20:19;;;;;;;1.50;1.10;;;9.50;98.20;;;;;;5000397;28;20452;-75
2022/09/21 02:22:59;;;;;;;1.57;1.30;;;9.50;98.20;;;;;;5012993;28;20517;-76
2022/09/21 02:25:34;;;;;;;1.53;1.10;;;9.60;98.20;;;;;;5007403;28;20492;-78
2022/09/21 02:28:08;;;;;;;1.53;1.20;;;9.60;98.20;;;;;;4994007;28;20999;-76
2022/09/21 02:30:37;;;;;;;1.57;1.20;;;9.60;98.20;;;;;;5004512;28;20521;-77
2022/09/21 02:33:11;;;;;;;1.57;1.20;;;9.60;98.20;;;;;;4996310;28;20484;-77
2022/09/21 02:35:43;;;;;;;1.57;1.20;;;9.60;98.20;;;;;;4989359;28;20465;-77
2022/09/21 02:38:17;;;;;;;1.60;1.30;;;9.60;98.20;;;;;;4998737;28;20537;-77
2022/09/21 02:40:52;;;;;;;1.50;1.20;;;9.60;98.20;;;;;;4988730;28;20958;-77
2022/09/21 02:43:23;;;;;;;1.50;1.20;;;9.50;98.20;;;;;;4985430;28;20560;-77
2022/09/21 02:45:54;;;;;;;1.50;1.13;;;9.50;98.20;;;;;;4978862;28;20469;-78
2022/09/21 02:48:27;;;;;;;1.60;1.20;;;9.50;98.20;;;;;;5008317;28;20483;-75
2022/09/21 02:50:58;;;;;;;1.53;1.20;;;9.40;98.20;;;;;;4987073;28;20475;-76
2022/09/21 02:53:28;;;;;;;1.60;1.20;;;9.40;98.20;;;;;;5007198;28;20508;-76
2022/09/21 02:56:01;;;;;;;1.57;1.20;;;9.40;98.20;;;;;;4996907;28;20510;-77
2022/09/21 02:58:29;;;;;;;1.53;1.30;;;9.40;98.20;;;;;;5007322;28;21018;-75
2022/09/21 03:00:58;;;;;;;1.53;1.20;;;9.30;98.20;;;;;;4982236;28;20519;-76
2022/09/21 03:03:26;;;;;;;1.57;1.20;;;9.30;98.20;;;;;;5008822;28;20464;-77
2022/09/21 03:05:54;;;;;;;1.50;1.10;;;9.20;98.20;;;;;;4980408;28;20914;-76
2022/09/21 03:08:22;;;;;;;1.60;1.20;;;9.20;98.20;;;;;;5019244;28;20496;-77
2022/09/21 03:10:50;;;;;;;1.57;1.20;;;9.20;98.20;;;;;;5001962;28;20898;-77
2022/09/21 03:13:17;;;;;;;1.57;1.20;;;9.20;98.20;;;;;;5009594;28;20464;-77
2022/09/21 03:15:44;;;;;;;1.50;1.20;;;9.10;98.20;;;;;;4992997;28;20469;-77
2022/09/21 03:18:12;;;;;;;1.60;1.50;;;9.10;98.20;;;;;;4997322;28;20868;-77
2022/09/21 03:20:44;;;;;;;1.50;1.20;;;9.10;98.20;;;;;;5011529;28;20456;-77
2022/09/21 03:23:12;;;;;;;1.50;1.20;;;9.10;98.20;;;;;;4996823;28;20536;-78
2022/09/21 03:25:39;;;;;;;1.53;1.20;;;9.10;98.20;;;;;;5010115;28;20468;-75
2022/09/21 03:28:06;;;;;;;1.53;1.20;;;9.10;98.20;;;;;;5015635;28;21054;-75
2022/09/21 03:30:34;;;;;;;1.57;1.30;;;9.00;98.20;;;;;;5013629;28;20471;-78
2022/09/21 03:33:02;;;;;;;1.57;1.20;;;9.00;98.20;;;;;;5000808;28;20520;-76
2022/09/21 03:35:29;;;;;;;1.60;1.20;;;9.00;98.20;;;;;;4996820;28;20460;-77
2022/09/21 03:37:58;;;;;;;1.57;1.20;;;9.00;98.20;;;;;;4999120;28;20571;-77
2022/09/21 03:40:26;;;;;;;1.53;1.20;;;9.00;98.20;;;;;;4993175;28;20545;-75
2022/09/21 03:42:53;;;;;;;1.60;1.20;;;9.00;98.20;;;;;;4998536;28;20494;-77
2022/09/21 03:45:21;;;;;;;1.60;1.30;;;9.00;98.20;;;;;;4992652;28;20472;-77
2022/09/21 03:47:48;;;;;;;1.60;1.20;;;9.00;98.20;;;;;;5016421;28;20494;-78
2022/09/21 03:50:16;;;;;;;1.53;1.20;;;9.00;98.20;;;;;;5004017;28;20524;-78
2022/09/21 03:52:43;;;;;;;1.53;1.20;;;9.00;98.20;;;;;;4996727;28;20489;-77
2022/09/21 03:55:11;;;;;;;1.50;1.20;;;9.00;98.20;;;;;;4998245;28;20837;-77
2022/09/21 03:57:38;;;;;;;1.57;1.27;;;9.00;98.20;;;;;;5015830;28;20574;-77
2022/09/21 04:00:09;;;;;;;1.57;1.23;;;9.00;98.20;;;;;;5004602;28;20996;-77
2022/09/21 04:02:36;;;;;;;1.57;1.20;;;9.00;98.20;;;;;;5001982;28;20491;-76
2022/09/21 04:05:05;;;;;;;1.53;1.20;;;9.00;98.20;;;;;;4994053;28;20507;-75
2022/09/21 04:07:34;;;;;;;1.53;1.20;;;8.90;98.20;;;;;;4999284;28;20579;-76
2022/09/21 04:10:01;;;;;;;1.60;1.40;;;8.90;98.20;;;;;;4995299;28;20527;-75
2022/09/21 04:12:30;;;;;;;1.60;1.20;;;8.90;98.20;;;;;;5000232;28;20480;-76
2022/09/21 04:14:57;;;;;;;1.53;1.20;;;8.90;98.20;;;;;;5008182;28;20471;-77
2022/09/21 04:17:24;;;;;;;1.53;1.20;;;8.80;98.20;;;;;;5002208;28;20587;-77
2022/09/21 04:19:51;;;;;;;1.53;1.20;;;8.80;98.20;;;;;;5003823;28;20544;-78
2022/09/21 04:22:18;;;;;;;1.57;1.20;;;8.80;98.20;;;;;;5009838;28;20479;-79
2022/09/21 04:24:45;;;;;;;1.60;1.30;;;8.80;98.20;;;;;;5008844;28;20480;-77
2022/09/21 04:27:12;;;;;;;1.50;1.20;;;8.70;98.20;;;;;;5003567;28;20557;-78
2022/09/21 04:29:41;;;;;;;1.53;1.10;;;8.60;98.20;;;;;;5015510;28;20495;-79
2022/09/21 04:32:08;;;;;;;1.60;1.40;;;8.60;98.20;;;;;;5000466;28;20550;-77
2022/09/21 04:34:35;;;;;;;1.53;1.20;;;8.60;98.20;;;;;;5002296;28;20969;-77
2022/09/21 04:37:02;;;;;;;1.60;1.20;;;8.60;98.20;;;;;;4997248;28;20523;-77
2022/09/21 04:39:29;;;;;;;1.50;1.20;;;8.60;98.20;;;;;;4995706;28;20499;-77
2022/09/21 04:41:56;;;;;;;1.50;1.20;;;8.60;98.20;;;;;;4997329;28;20959;-76
2022/09/21 04:44:23;;;;;;;1.57;1.30;;;8.60;98.20;;;;;;5012039;28;20460;-75
2022/09/21 04:46:52;;;;;;;1.53;1.30;;;8.50;98.20;;;;;;4993527;28;20571;-75
2022/09/21 04:49:19;;;;;;;1.50;1.23;;;8.50;98.20;;;;;;5007919;28;20536;-75
2022/09/21 04:51:46;;;;;;;1.50;1.20;;;8.50;98.20;;;;;;4999340;28;20483;-75
2022/09/21 04:54:13;;;;;;;1.57;1.20;;;8.50;98.20;;;;;;5015944;28;20469;-75
2022/09/21 04:56:40;;;;;;;1.60;1.30;;;8.50;98.20;;;;;;4998332;28;20554;-76
2022/09/21 04:59:07;;;;;;;1.60;1.30;;;8.40;98.20;;;;;;5009743;28;20479;-76
2022/09/21 05:01:34;;;;;;;1.60;1.30;;;8.40;98.20;;;;;;5005109;28;20500;-77
2022/09/21 05:04:03;;;;;;;1.57;1.20;;;8.40;98.20;;;;;;5017053;28;20961;-77
2022/09/21 05:06:30;;;;;;;1.53;1.20;;;8.40;98.20;;;;;;5001706;28;20483;-76
2022/09/21 05:11:43;;;;;;;1.53;1.20;;;8.40;98.20;;;;;;5005409;28;20880;-76
2022/09/21 05:14:10;;;;;;;1.60;1.33;;;8.40;98.20;;;;;;5013398;28;20511;-76
2022/09/21 05:16:38;;;;;;;1.57;1.20;;;8.40;98.20;;;;;;4997596;28;20480;-77
2022/09/21 05:19:06;;;;;;;1.57;1.20;;;8.40;98.20;;;;;;5008242;28;20488;-78
2022/09/21 05:21:41;;;;;;;1.50;1.30;;;8.30;98.20;;;;;;4990674;28;20480;-77
2022/09/21 05:27:11;;;;;;;1.53;1.20;;;8.30;98.20;;;;;;5002237;28;20485;-77
2022/09/21 05:29:39;;;;;;;1.53;1.27;;;8.30;98.20;;;;;;5004910;28;20483;-75
2022/09/21 05:32:16;;;;;;;2.70;2.50;;;8.40;98.20;;;;;;5006295;28;20546;-77
2022/09/21 05:34:55;;;;;;;1.60;1.20;;;8.40;98.20;;;;;;5011145;28;20460;-75
2022/09/21 05:37:45;;;;;;;1.60;1.20;;;8.40;98.20;;;;;;5008635;28;20665;-76
2022/09/21 05:40:14;;;;;;;1.50;1.20;;;8.40;98.20;;;;;;5007796;28;20457;-75
2022/09/21 05:42:42;;;;;;;1.60;1.27;;;8.40;98.20;;;;;;4995157;28;20484;-75
2022/09/21 05:45:14;;;;;;;1.50;1.30;;;8.50;98.20;;;;;;5007989;28;20518;-75
2022/09/21 05:47:55;;;;;;;1.57;1.20;;;8.50;98.20;;;;;;5005636;28;20475;-75
2022/09/21 05:50:39;;;;;;;1.50;1.20;;;8.50;98.20;;;;;;5005314;28;20463;-75
2022/09/21 05:53:23;;;;;;;1.60;1.30;;;8.60;98.20;;;;;;5004189;28;20491;-76
2022/09/21 05:55:56;;;;;;;1.60;1.30;;;8.60;98.20;;;;;;4996488;28;20468;-75
2022/09/21 05:58:35;;;;;;;1.53;1.30;;;8.60;98.20;;;;;;5001672;28;20488;-75
2022/09/21 06:01:19;;;;;;;1.57;1.30;;;8.70;98.20;;;;;;4997043;28;20464;-75
2022/09/21 06:03:48;;;;;;;1.60;1.30;;;8.70;98.20;;;;;;5015341;28;20847;-76
2022/09/21 06:06:20;;;;;;;1.50;1.20;;;8.80;98.20;;;;;;4997309;28;20474;-76
2022/09/21 06:08:48;;;;;;;1.50;1.20;;;8.90;98.20;;;;;;5010189;28;21013;-75
2022/09/21 06:11:15;;;;;;;1.57;1.30;;;9.00;98.20;;;;;;4996864;28;20476;-74
2022/09/21 06:13:43;;;;;;;1.60;1.40;;;9.10;98.20;;;;;;5004658;28;20978;-75
2022/09/21 06:16:10;;;;;;;1.60;1.30;;;9.30;98.20;;;;;;4998603;28;20587;-75
2022/09/21 06:18:39;;;;;;;1.53;1.20;;;9.40;98.20;;;;;;5018834;28;20993;-76
2022/09/21 06:21:07;;;;;;;1.53;1.17;;;9.60;98.20;;;;;;4987036;28;21100;-75
2022/09/21 06:23:36;;;;;;;1.57;1.20;;;9.70;98.20;;;;;;5004972;28;20457;-75
2022/09/21 06:26:03;;;;;;;1.60;1.20;;;9.90;98.20;;;;;;4995035;28;20475;-75
2022/09/21 06:28:30;;;;;;;1.53;1.10;;;10.10;98.20;;;;;;5013760;28;20503;-75
2022/09/21 06:30:58;;;;;;;1.53;1.20;;;10.20;98.20;;;;;;4996980;28;20551;-76
2022/09/21 06:33:26;;;;;;;1.53;1.10;;;10.40;98.20;;;;;;5006462;28;20476;-76
2022/09/21 06:35:55;;;;;;;1.53;1.17;;;10.60;98.20;;;;;;4995313;28;20472;-76
2022/09/21 06:38:22;;;;;;;1.57;1.20;;;10.70;98.20;;;;;;5015244;28;21067;-75
2022/09/21 06:40:52;;;;;;;1.57;1.10;;;10.90;98.20;;;;;;4995686;28;20861;-76
2022/09/21 06:43:19;;;;;;;1.50;1.20;;;11.00;98.20;;;;;;5014556;28;20469;-76
2022/09/21 06:45:54;;;;;;;1.70;1.30;;;11.20;98.20;;;;;;5007341;28;20559;-76
2022/09/21 06:48:22;;;;;;;1.57;1.10;;;11.40;98.20;;;;;;4994739;28;20498;-76
2022/09/21 06:50:49;;;;;;;1.60;1.30;;;11.50;98.20;;;;;;4993936;28;20551;-75
2022/09/21 06:53:18;;;;;;;1.57;1.10;;;11.50;98.20;;;;;;5021433;28;20471;-76
2022/09/21 06:55:45;;;;;;;1.53;1.10;;;11.50;98.20;;;;;;5009897;28;20496;-74
2022/09/21 06:58:13;;;;;;;1.53;1.10;;;11.50;98.20;;;;;;4999343;28;20709;-74
2022/09/21 07:00:41;;;;;;;1.53;1.10;;;11.70;98.20;;;;;;5008364;28;20560;-74
2022/09/21 07:03:11;;;;;;;1.53;1.10;;;11.80;98.20;;;;;;4989141;28;20492;-74
2022/09/21 07:05:39;;;;;;;1.60;1.10;;;11.90;98.20;;;;;;5007701;28;20965;-74
2022/09/21 07:08:07;;;;;;;1.60;1.20;;;11.90;98.20;;;;;;4995631;28;20504;-74
2022/09/21 07:10:34;;;;;;;1.50;1.10;;;11.90;98.20;;;;;;5007178;28;20467;-74
2022/09/21 07:13:25;;;;;;;1.53;1.10;;;12.00;98.20;;;;;;5007551;28;20563;-77
2022/09/21 07:18:51;;;;;;;1.50;1.10;;;12.20;98.20;;;;;;5014891;28;20590;-77
2022/09/21 07:21:31;;;;;;;1.53;1.10;;;12.40;98.20;;;;;;5001865;28;20491;-77
2022/09/21 07:24:11;;;;;;;1.53;1.00;;;12.60;98.20;;;;;;5021504;28;20472;-76
2022/09/21 07:26:49;;;;;;;1.50;1.00;;;12.70;98.20;;;;;;5000903;28;20491;-76
2022/09/21 07:29:17;;;;;;;1.50;1.00;;;12.80;98.20;;;;;;5025446;22;20494;-74
2022/09/21 07:31:47;;;;;;;1.50;1.10;;;12.90;98.20;;;;;;5016311;28;20539;-75
2022/09/21 07:34:15;;;;;;;1.57;1.10;;;12.90;98.20;;;;;;5030394;28;20467;-75
2022/09/21 07:36:43;;;;;;;1.57;1.07;;;13.10;98.20;;;;;;5010388;28;20483;-75
2022/09/21 07:39:11;;;;;;;1.53;1.00;;;13.30;98.20;;;;;;5021419;28;20490;-76
2022/09/21 07:41:38;;;;;;;1.53;1.00;;;13.40;98.20;;;;;;5013285;28;20484;-76
2022/09/21 07:44:07;;;;;;;1.53;1.10;;;13.50;98.20;;;;;;5025320;28;20479;-76
2022/09/21 07:46:37;;;;;;;1.53;1.00;;;13.60;98.20;;;;;;5011057;28;20946;-76
2022/09/21 07:49:06;;;;;;;1.57;1.00;;;13.70;98.20;;;;;;5018096;28;20491;-76
2022/09/21 07:51:34;;;;;;;1.57;1.10;;;13.90;98.20;;;;;;5014260;28;20482;-77
2022/09/21 07:54:03;;;;;;;1.53;1.00;;;14.00;98.20;;;;;;5033931;28;20722;-77
2022/09/21 07:56:32;;;;;;;1.60;1.10;;;14.20;98.20;;;;;;5023790;28;20477;-76
2022/09/21 07:59:07;;;;;;;1.53;1.00;;;14.40;98.20;;;;;;5037894;28;20471;-75
2022/09/21 08:01:37;;;;;;;1.60;1.00;;;14.60;98.20;;;;;;5016670;28;20534;-75
2022/09/21 08:04:18;;;;;;;2.23;1.60;;;14.60;98.20;;;;;;5022885;28;20467;-76
2022/09/21 08:09:27;;;;;;;1.60;1.30;;;14.90;98.20;;;;;;5027830;28;20597;-76
2022/09/21 08:11:55;;;;;;;1.60;1.00;;;15.10;98.20;;;;;;5008595;28;20491;-75
2022/09/21 08:14:23;;;;;;;1.57;0.90;;;15.20;98.20;;;;;;5020454;28;20455;-76
2022/09/21 08:16:50;;;;;;;1.57;1.00;;;15.30;98.20;;;;;;5019472;28;20497;-76
2022/09/21 08:19:19;;;;;;;1.50;1.00;;;15.50;98.20;;;;;;5027706;28;20483;-76
2022/09/21 08:21:50;;;;;;;1.57;1.00;;;15.50;98.20;;;;;;5007358;28;20486;-76
2022/09/21 08:24:17;;;;;;;1.53;1.00;;;15.60;98.20;;;;;;5028329;28;20762;-76
2022/09/21 08:26:45;;;;;;;1.53;1.00;;;15.80;98.20;;;;;;5012478;28;20522;-76
2022/09/21 08:29:13;;;;;;;1.50;1.00;;;15.90;98.20;;;;;;5020917;28;20583;-75
2022/09/21 08:31:40;;;;;;;1.60;1.00;;;16.00;98.20;;;;;;5010780;28;21183;-75
2022/09/21 08:34:07;;;;;;;1.60;1.23;;;16.00;98.20;;;;;;5018470;28;20474;-75
2022/09/21 08:36:36;;;;;;;1.53;1.00;;;16.00;98.20;;;;;;5014722;28;20537;-75
2022/09/21 08:39:07;;;;;;;1.53;1.00;;;16.10;98.20;;;;;;5025808;28;20479;-74
2022/09/21 08:41:52;;;;;;;1.50;0.97;;;16.20;98.20;;;;;;5009099;28;20546;-75
2022/09/21 08:44:23;;;;;;;1.53;0.90;;;16.40;98.20;;;;;;5021263;28;20467;-75
2022/09/21 08:46:58;;;;;;;1.57;1.07;;;16.50;98.20;;;;;;5007639;28;20523;-75
2022/09/21 08:49:28;;;;;;;1.53;0.90;;;16.60;98.20;;;;;;5022816;28;20518;-75
2022/09/21 08:52:02;;;;;;;1.53;0.97;;;16.60;98.20;;;;;;5005706;28;20488;-76
2022/09/21 08:54:37;;;;;;;1.60;1.00;;;16.80;98.20;;;;;;5023889;28;20570;-75
2022/09/21 08:57:05;;;;;;;1.60;1.00;;;16.90;98.20;;;;;;5006185;28;20562;-76
2022/09/21 08:59:34;;;;;;;1.50;0.90;;;16.90;98.20;;;;;;5023515;28;20857;-75
2022/09/21 09:02:13;;;;;;;1.50;1.00;;;17.00;98.20;;;;;;5007465;28;20480;-75
2022/09/21 09:04:57;;;;;;;1.53;0.93;;;17.00;98.20;;;;;;5024263;28;20471;-75
2022/09/21 09:07:46;;;;;;;1.50;1.00;;;17.00;98.20;;;;;;5003337;28;20869;-76
2022/09/21 09:10:27;;;;;;;1.53;1.00;;;17.10;98.20;;;;;;5033906;28;20495;-76
2022/09/21 09:13:05;;;;;;;1.53;1.00;;;17.30;98.20;;;;;;4998762;28;20494;-74
2022/09/21 09:15:46;;;;;;;1.50;1.00;;;17.50;98.20;;;;;;5028239;28;21069;-75
2022/09/21 09:18:24;;;;;;;2.10;1.20;;;17.70;97.90;;;;;;5011866;28;20490;-75
2022/09/21 09:20:57;;;;;;;1.50;0.90;;;17.70;98.20;;;;;;5011188;28;21136;-75
2022/09/21 09:23:28;;;;;;;1.53;1.00;;;17.80;98.10;;;;;;5026927;28;20464;-75
2022/09/21 09:26:01;;;;;;;1.53;1.00;;;18.00;97.90;;;;;;5015493;28;20550;-75
2022/09/21 09:28:33;;;;;;;1.53;0.90;;;18.20;97.30;;;;;;5010098;28;20502;-75
2022/09/21 09:31:05;;;;;;;1.53;0.90;;;18.40;96.70;;;;;;5013813;28;21171;-76
2022/09/21 09:33:44;;;;;;;1.50;0.90;;;18.50;96.40;;;;;;5013759;28;20468;-76
2022/09/21 09:36:13;;;;;;;1.53;0.90;;;18.60;94.60;;;;;;5012573;28;20508;-75
2022/09/21 09:38:47;;;;;;;1.50;0.90;;;18.80;96.00;;;;;;5015119;28;20487;-76
2022/09/21 09:41:35;;;;;;;1.53;0.90;;;19.00;95.50;;;;;;5013756;28;20500;-75
2022/09/21 09:44:19;;;;;;;1.53;0.90;;;19.20;95.70;;;;;;5017161;28;20538;-76
2022/09/21 09:46:57;;;;;;;1.53;0.90;;;19.40;94.00;;;;;;5008086;28;21042;-75
2022/09/21 09:49:34;;;;;;;1.53;0.90;;;19.50;93.00;;;;;;5018682;28;20499;-76
2022/09/21 09:52:02;;;;;;;1.50;0.90;;;19.60;92.00;;;;;;5003148;28;21003;-75
2022/09/21 09:54:35;;;;;;;1.50;0.90;;;19.70;92.10;;;;;;5026909;28;20578;-76
2022/09/21 09:57:04;;;;;;;1.50;0.90;;;19.80;90.80;;;;;;5005925;28;20488;-75
2022/09/21 09:59:36;;;;;;;1.50;0.90;;;19.90;91.50;;;;;;5018648;28;20884;-75
2022/09/21 10:02:06;;;;;;;1.53;0.90;;;20.00;89.80;;;;;;5005303;28;20993;-75
2022/09/21 10:04:34;;;;;;;1.50;0.90;;;20.20;89.60;;;;;;5021456;28;20948;-75
2022/09/21 10:07:02;;;;;;;1.50;0.90;;;20.20;86.30;;;;;;5013919;28;20553;-75
2022/09/21 10:09:32;;;;;;;1.50;0.90;;;19.90;88.00;;;;;;5027350;28;20495;-75
2022/09/21 10:12:02;;;;;;;1.50;0.90;;;19.60;86.70;;;;;;5017565;28;20553;-75
2022/09/21 10:14:34;;;;;;;1.50;0.90;;;19.40;90.50;;;;;;5027353;28;20499;-75
2022/09/21 10:17:06;;;;;;;1.50;0.90;;;19.60;89.70;;;;;;5006696;28;20881;-75
2022/09/21 10:19:34;;;;;;;1.50;0.90;;;19.80;88.60;;;;;;5021297;28;20617;-75
2022/09/21 10:22:02;;;;;;;1.50;0.90;;;20.10;88.80;;;;;;5001763;28;20488;-75
2022/09/21 10:24:34;;;;;;;1.50;0.90;;;20.40;88.10;;;;;;5019691;28;20458;-76
2022/09/21 10:27:09;;;;;;;1.50;0.90;;;20.60;87.80;;;;;;5006761;28;20554;-75
2022/09/21 10:29:42;;;;;;;1.50;0.90;;;20.80;85.80;;;;;;5022495;28;20508;-75
2022/09/21 10:32:22;;;;;;;1.50;1.00;;;20.80;83.50;;;;;;5004729;28;20477;-75
2022/09/21 10:35:16;;;;;;;1.50;0.90;;;20.90;83.00;;;;;;5022446;28;20486;-75
2022/09/21 10:37:47;;;;;;;1.50;0.90;;;20.40;79.70;;;;;;4996883;28;20570;-75
2022/09/21 10:40:29;;;;;;;1.50;0.90;;;20.00;83.80;;;;;;5027984;28;20459;-75
2022/09/21 10:42:58;;;;;;;1.50;0.90;;;20.10;84.30;;;;;;4997582;28;20568;-75
2022/09/21 10:45:27;;;;;;;1.50;0.90;;;20.10;81.40;;;;;;5025268;28;20777;-75
2022/09/21 10:47:58;;;;;;;1.50;0.90;;;20.10;79.30;;;;;;4994492;28;20487;-74
2022/09/21 10:50:28;;;;;;;1.50;0.90;;;19.60;79.20;;;;;;5020497;28;20908;-75
2022/09/21 10:53:00;;;;;;;1.50;0.90;;;19.30;82.40;;;;;;4996671;28;20492;-75
2022/09/21 10:55:30;;;;;;;1.50;0.90;;;19.10;81.60;;;;;;5024118;28;20738;-75
2022/09/21 10:57:58;;;;;;;1.50;0.90;;;19.10;83.60;;;;;;4999282;28;21016;-75
2022/09/21 11:00:34;;;;;;;1.50;0.90;;;19.30;82.10;;;;;;5026895;28;20960;-74
2022/09/21 11:03:24;;;;;;;1.50;0.90;;;19.50;80.90;;;;;;5007127;28;20633;-75
2022/09/21 11:05:53;;;;;;;1.50;0.90;;;19.50;79.10;;;;;;5016220;28;20467;-76
2022/09/21 11:08:30;;;;;;;1.50;1.00;;;19.60;81.70;;;;;;5016644;28;20767;-75
2022/09/21 11:11:13;;;;;;;1.50;0.90;;;19.90;81.30;;;;;;5017592;28;20649;-75
2022/09/21 11:13:49;;;;;;;1.50;1.00;;;20.30;79.30;;;;;;5015577;28;20539;-75
2022/09/21 11:16:23;;;;;;;1.50;0.90;;;20.60;81.00;;;;;;5010986;28;20483;-75
2022/09/21 11:18:58;;;;;;;1.50;0.90;;;20.90;81.30;;;;;;5016360;28;20654;-75
2022/09/21 11:21:35;;;;;;;1.50;0.90;;;21.00;75.50;;;;;;5006153;28;20489;-75
2022/09/21 11:24:10;;;;;;;1.50;0.90;;;21.10;76.80;;;;;;5015018;28;20834;-76
2022/09/21 11:26:45;;;;;;;1.50;0.90;;;20.80;74.30;;;;;;5009316;28;20484;-75
2022/09/21 11:29:18;;;;;;;1.50;0.90;;;20.50;77.20;;;;;;5017903;28;20995;-75
2022/09/21 11:32:02;;;;;;;1.50;0.90;;;20.60;78.40;;;;;;5010270;28;20487;-75
2022/09/21 11:34:53;;;;;;;1.50;0.90;;;20.70;74.90;;;;;;5024434;28;20455;-75
2022/09/21 11:37:41;;;;;;;1.50;0.90;;;20.90;74.30;;;;;;5005203;28;21005;-75
2022/09/21 11:40:22;;;;;;;1.50;0.90;;;21.20;75.70;;;;;;5029729;28;20491;-75
2022/09/21 11:43:01;;;;;;;1.50;0.90;;;21.50;74.50;;;;;;4998411;28;21046;-75
2022/09/21 11:45:45;;;;;;;1.50;0.90;;;21.70;74.90;;;;;;5023849;28;20498;-75
2022/09/21 11:48:23;;;;;;;1.50;0.90;;;21.80;74.40;;;;;;4998696;28;20481;-75
2022/09/21 11:51:01;;;;;;;1.50;0.90;;;22.10;73.80;;;;;;5008922;28;21035;-75
2022/09/21 11:53:56;;;;;;;1.50;0.90;;;22.20;74.10;;;;;;5006510;28;20484;-75
2022/09/21 11:56:39;;;;;;;1.50;0.90;;;22.30;73.00;;;;;;5008564;28;20471;-75
2022/09/21 11:59:28;;;;;;;1.50;0.90;;;22.30;71.50;;;;;;5014893;28;20489;-74
2022/09/21 12:02:28;;;;;;;1.50;0.90;;;22.40;74.10;;;;;;5005068;28;20476;-75
2022/09/21 12:05:01;;;;;;;1.50;0.90;;;22.30;74.30;;;;;;5021924;28;20471;-76
2022/09/21 12:07:45;;;;;;;1.47;0.90;;;22.00;72.20;;;;;;5002122;28;20992;-75
2022/09/21 12:10:27;;;;;;;1.50;0.90;;;21.80;72.40;;;;;;5029453;28;20557;-75
2022/09/21 12:13:00;;;;;;;1.50;0.90;;;21.60;71.90;;;;;;5000584;28;20488;-75
2022/09/21 12:15:35;;;;;;;1.50;0.90;;;21.40;74.40;;;;;;5023645;28;20667;-75
2022/09/21 12:18:09;;;;;;;1.50;0.90;;;21.10;72.00;;;;;;4997847;28;20476;-75
2022/09/21 12:20:47;;;;;;;1.50;0.90;;;21.00;71.40;;;;;;5024853;28;20901;-76
2022/09/21 12:23:19;;;;;;;1.50;0.90;;;20.70;74.00;;;;;;4997938;28;20473;-74
2022/09/21 12:25:52;;;;;;;1.50;0.90;;;20.60;75.90;;;;;;5027681;28;21019;-75
2022/09/21 12:28:24;;;;;;;1.50;0.90;;;20.40;75.60;;;;;;5003135;28;20888;-74
2022/09/21 12:30:59;;;;;;;1.50;0.90;;;20.10;74.70;;;;;;5019544;28;20490;-74
2022/09/21 12:33:36;;;;;;;1.50;0.90;;;19.70;74.00;;;;;;5010080;28;20532;-76
2022/09/21 12:36:10;;;;;;;1.50;0.90;;;19.40;74.50;;;;;;5012264;28;20517;-75
2022/09/21 12:38:44;;;;;;;1.50;1.00;;;19.10;75.10;;;;;;5012046;28;20494;-74
2022/09/21 12:41:17;;;;;;;1.50;0.90;;;18.90;76.80;;;;;;5013499;28;20755;-75
2022/09/21 12:43:50;;;;;;;1.50;0.90;;;18.90;77.10;;;;;;5010660;28;21011;-74
2022/09/21 12:46:24;;;;;;;1.50;0.90;;;18.80;75.90;;;;;;5014375;28;20558;-75
2022/09/21 12:48:51;;;;;;;1.50;1.00;;;18.80;76.30;;;;;;5027178;28;20869;-75
2022/09/21 12:51:24;;;;;;;1.50;0.90;;;18.80;76.60;;;;;;5008716;28;20584;-74
2022/09/21 12:53:54;;;;;;;1.50;0.90;;;18.80;78.40;;;;;;5015307;28;20956;-74
2022/09/21 12:56:36;;;;;;;1.50;0.90;;;18.80;78.10;;;;;;5010825;28;21075;-75
2022/09/21 12:59:25;;;;;;;1.50;0.90;;;18.70;77.20;;;;;;5018182;28;20489;-75
2022/09/21 13:02:04;;;;;;;1.50;0.90;;;18.80;81.10;;;;;;5002546;28;20484;-75
2022/09/21 13:04:40;;;;;;;1.50;0.90;;;19.10;78.50;;;;;;5017122;28;20467;-75
2022/09/21 13:07:31;;;;;;;1.50;0.90;;;19.40;77.90;;;;;;5014127;28;20494;-75
2022/09/21 13:10:00;;;;;;;1.50;0.90;;;19.60;76.20;;;;;;5025775;28;20890;-74
2022/09/21 13:12:33;;;;;;;1.50;0.90;;;19.80;75.90;;;;;;5002379;28;20571;-75
2022/09/21 13:15:12;;;;;;;1.50;0.90;;;19.90;76.20;;;;;;5025867;28;20490;-74
2022/09/21 13:17:41;;;;;;;1.50;1.00;;;19.90;76.10;;;;;;5007220;28;20491;-74
2022/09/21 13:20:18;;;;;;;1.50;0.90;;;20.10;77.80;;;;;;5022115;28;20475;-74
2022/09/21 13:22:47;;;;;;;1.50;0.90;;;20.40;76.00;;;;;;5015462;28;20474;-76
2022/09/21 13:25:27;;;;;;;1.50;0.90;;;20.60;75.30;;;;;;5030034;28;20529;-75
2022/09/21 13:28:03;;;;;;;1.50;0.90;;;20.80;72.00;;;;;;5001555;28;20590;-75